createdAt,value
2019-03-22T00:01:15.137Z,83.35
2019-03-22T00:03:45.949Z,82.70
2019-03-22T00:06:16.825Z,83.75
2019-03-22T00:08:47.628Z,81.02
2019-03-22T00:11:18.462Z,83.55
2019-03-22T00:13:49.203Z,83.58
2019-03-22T00:16:20.007Z,80.53
2019-03-22T00:18:51.739Z,81.97
2019-03-22T00:21:22.611Z,79.32
2019-03-22T00:23:53.372Z,80.07
2019-03-22T00:26:25.194Z,78.55
2019-03-22T00:28:56.068Z,80.07
2019-03-22T00:31:29.093Z,78.33
2019-03-22T00:34:01.257Z,78.00
2019-03-22T00:36:32.111Z,74.27
2019-03-22T00:39:02.951Z,76.33
2019-03-22T00:41:34.863Z,74.92
2019-03-22T00:44:06.334Z,74.27
2019-03-22T00:46:37.137Z,73.22
2019-03-22T00:49:07.922Z,72.70
2019-03-22T00:51:39.785Z,73.30
2019-03-22T00:54:10.563Z,71.33
2019-03-22T00:56:42.328Z,71.02
2019-03-22T00:59:13.222Z,69.50
2019-03-22T01:01:44.021Z,69.30
2019-03-22T01:04:14.770Z,65.95
2019-03-22T01:06:45.528Z,67.42
2019-03-22T01:09:16.342Z,67.25
2019-03-22T01:11:47.182Z,65.60
2019-03-22T01:14:17.910Z,63.80
2019-03-22T01:16:48.685Z,63.85
2019-03-22T01:19:19.504Z,62.45
2019-03-22T01:21:50.318Z,61.25
2019-03-22T01:24:21.114Z,62.83
2019-03-22T01:26:51.910Z,61.10
2019-03-22T01:29:22.676Z,60.85
2019-03-22T01:31:53.639Z,59.65
2019-03-22T01:34:24.374Z,59.10
2019-03-22T01:36:55.207Z,58.13
2019-03-22T01:39:28.457Z,56.28
2019-03-22T01:41:59.509Z,57.78
2019-03-22T01:44:33.917Z,55.67
2019-03-22T01:47:04.621Z,57.15
2019-03-22T01:49:35.432Z,57.03
2019-03-22T01:52:06.228Z,53.92
2019-03-22T01:54:37.069Z,53.13
2019-03-22T01:57:07.831Z,51.65
2019-03-22T01:59:38.749Z,54.03
2019-03-22T02:02:09.509Z,52.25
2019-03-22T02:04:40.377Z,51.70
2019-03-22T02:07:11.143Z,50.78
2019-03-22T02:09:42.924Z,50.52
2019-03-22T02:12:13.676Z,49.73
2019-03-22T02:14:44.614Z,49.05
2019-03-22T02:17:15.434Z,48.48
2019-03-22T02:19:46.203Z,49.58
2019-03-22T02:22:17.001Z,48.25
2019-03-22T02:24:48.832Z,48.33
2019-03-22T02:27:19.617Z,46.48
2019-03-22T02:29:50.375Z,48.05
2019-03-22T02:32:21.153Z,48.52
2019-03-22T02:34:52.014Z,44.20
2019-03-22T02:37:22.774Z,43.85
2019-03-22T02:39:53.580Z,45.25
2019-03-22T02:42:24.340Z,42.93
2019-03-22T02:44:55.258Z,43.15
2019-03-22T02:47:26.029Z,43.40
2019-03-22T02:49:56.807Z,44.83
2019-03-22T02:52:27.550Z,43.20
2019-03-22T02:54:58.460Z,40.48
2019-03-22T02:57:29.395Z,41.13
2019-03-22T03:00:00.451Z,40.38
2019-03-22T03:02:31.356Z,40.50
2019-03-22T03:05:02.761Z,40.00
2019-03-22T03:07:33.630Z,39.05
2019-03-22T03:10:04.883Z,38.80
2019-03-22T03:12:36.891Z,39.13
2019-03-22T03:15:08.693Z,39.55
2019-03-22T03:17:39.558Z,38.17
2019-03-22T03:20:12.070Z,38.10
2019-03-22T03:22:42.863Z,36.40
2019-03-22T03:25:13.761Z,37.38
2019-03-22T03:27:44.549Z,36.00
2019-03-22T03:30:16.295Z,35.65
2019-03-22T03:32:47.063Z,34.95
2019-03-22T03:35:17.905Z,34.58
2019-03-22T03:37:48.753Z,33.70
2019-03-22T03:40:19.575Z,33.55
2019-03-22T03:42:51.469Z,32.50
2019-03-22T03:45:35.315Z,32.30
2019-03-22T03:48:07.575Z,33.30
2019-03-22T03:50:38.348Z,29.20
2019-03-22T03:53:09.197Z,30.60
2019-03-22T03:55:40.001Z,30.62
2019-03-22T03:58:10.927Z,31.15
2019-03-22T04:00:41.703Z,99.37
2019-03-22T04:03:12.556Z,67.00
2019-03-22T04:05:43.394Z,64.90
2019-03-22T04:08:14.240Z,59.23
2019-03-22T04:10:45.022Z,58.78
2019-03-22T04:13:15.878Z,64.80
2019-03-22T04:15:47.761Z,68.05
2019-03-22T04:18:18.546Z,60.05
2019-03-22T04:20:52.283Z,55.95
2019-03-22T04:23:23.096Z,55.00
2019-03-22T04:25:53.880Z,55.15
2019-03-22T04:28:24.677Z,56.10
2019-03-22T04:30:55.466Z,55.40
2019-03-22T04:33:26.289Z,57.23
2019-03-22T04:35:57.123Z,55.85
2019-03-22T04:38:27.959Z,56.73
2019-03-22T04:40:58.848Z,56.28
2019-03-22T04:43:29.616Z,56.25
2019-03-22T04:46:00.732Z,58.33
2019-03-22T04:48:32.618Z,53.75
2019-03-22T04:51:03.493Z,55.98
2019-03-22T04:53:38.274Z,54.53
2019-03-22T04:56:11.560Z,55.78
2019-03-22T04:58:42.593Z,54.42
2019-03-22T05:01:13.350Z,53.85
2019-03-22T05:03:44.113Z,56.63
2019-03-22T05:06:14.860Z,53.73
2019-03-22T05:08:45.777Z,55.10
2019-03-22T05:11:16.549Z,55.15
2019-03-22T05:13:48.073Z,54.88
2019-03-22T05:16:18.922Z,49.90
2019-03-22T05:18:50.196Z,53.25
2019-03-22T05:21:21.239Z,54.08
2019-03-22T05:23:52.353Z,53.75
2019-03-22T05:26:23.235Z,55.08
2019-03-22T05:28:54.045Z,55.00
2019-03-22T05:32:02.535Z,52.73
2019-03-22T05:34:33.322Z,51.58
2019-03-22T05:37:05.264Z,51.15
2019-03-22T05:39:36.749Z,50.45
2019-03-22T05:42:08.300Z,49.40
2019-03-22T05:44:39.257Z,47.38
2019-03-22T05:47:10.051Z,48.80
2019-03-22T05:49:40.908Z,46.33
2019-03-22T05:52:11.759Z,47.48
2019-03-22T05:54:42.578Z,47.13
2019-03-22T05:57:15.013Z,46.30
2019-03-22T05:59:45.828Z,45.15
2019-03-22T06:02:16.646Z,44.60
2019-03-22T06:04:47.478Z,44.58
2019-03-22T06:07:18.325Z,45.48
2019-03-22T06:09:49.139Z,41.40
2019-03-22T06:12:19.879Z,43.55
2019-03-22T06:14:52.256Z,42.65
2019-03-22T06:17:24.001Z,44.93
2019-03-22T06:19:56.056Z,44.48
2019-03-22T06:22:26.835Z,41.55
2019-03-22T06:24:57.675Z,39.92
2019-03-22T06:27:28.477Z,39.92
2019-03-22T06:29:59.554Z,41.30
2019-03-22T06:32:30.406Z,40.55
2019-03-22T06:35:06.906Z,38.75
2019-03-22T06:37:38.428Z,40.60
2019-03-22T06:40:11.705Z,42.03
2019-03-22T06:42:42.484Z,41.65
2019-03-22T06:45:13.619Z,44.85
2019-03-22T06:47:45.341Z,43.33
2019-03-22T06:50:16.416Z,43.58
2019-03-22T06:52:47.297Z,41.08
2019-03-22T06:55:18.232Z,44.13
2019-03-22T06:57:48.993Z,41.48
2019-03-22T07:00:19.767Z,39.18
2019-03-22T07:02:50.556Z,40.08
2019-03-22T07:05:21.376Z,40.20
2019-03-22T07:07:52.185Z,38.05
2019-03-22T07:10:22.984Z,38.08
2019-03-22T07:12:53.744Z,37.50
2019-03-22T07:15:25.397Z,36.93
2019-03-22T07:17:56.226Z,37.75
2019-03-22T07:20:26.050Z,36.63
2019-03-22T07:22:57.309Z,35.73
2019-03-22T07:25:28.207Z,36.25
2019-03-22T07:27:59.084Z,35.73
2019-03-22T07:30:31.119Z,35.33
2019-03-22T07:33:01.950Z,34.05
2019-03-22T07:35:32.750Z,35.23
2019-03-22T07:38:03.482Z,33.13
2019-03-22T07:40:34.283Z,33.63
2019-03-22T07:43:05.094Z,33.45
2019-03-22T07:45:35.875Z,32.85
2019-03-22T07:48:06.765Z,32.93
2019-03-22T07:50:37.533Z,33.18
2019-03-22T07:53:08.353Z,32.25
2019-03-22T07:55:39.236Z,31.55
2019-03-22T07:58:10.103Z,31.20
2019-03-22T08:00:40.998Z,31.27
2019-03-22T08:03:11.837Z,30.88
2019-03-22T08:05:51.000Z,30.95
2019-03-22T08:08:15.572Z,30.40
2019-03-22T08:10:46.445Z,28.83
2019-03-22T08:13:17.224Z,30.20
2019-03-22T08:15:48.117Z,29.07
2019-03-22T08:18:19.466Z,27.98
2019-03-22T08:20:50.321Z,27.93
2019-03-22T08:23:24.154Z,29.18
2019-03-22T08:25:56.066Z,29.07
2019-03-22T08:28:27.002Z,28.57
2019-03-22T08:30:57.774Z,28.23
2019-03-22T08:33:28.695Z,28.23
2019-03-22T08:35:59.550Z,26.87
2019-03-22T08:38:30.419Z,26.70
2019-03-22T08:41:01.206Z,27.55
2019-03-22T08:43:32.116Z,26.40
2019-03-22T08:46:02.907Z,26.85
2019-03-22T08:48:33.784Z,27.25
2019-03-22T08:51:04.608Z,26.57
2019-03-22T08:53:35.414Z,24.92
2019-03-22T08:56:06.602Z,26.40
2019-03-22T08:58:37.615Z,25.95
2019-03-22T09:01:08.527Z,25.90
2019-03-22T09:03:39.279Z,25.08
2019-03-22T09:06:10.175Z,24.87
2019-03-22T09:08:41.602Z,25.00
2019-03-22T09:11:12.429Z,25.52
2019-03-22T09:13:43.840Z,24.25
2019-03-22T09:16:14.648Z,24.05
2019-03-22T09:18:45.524Z,23.62
2019-03-22T09:21:17.191Z,24.23
2019-03-22T09:23:49.714Z,24.32
2019-03-22T09:26:20.515Z,22.85
2019-03-22T09:28:51.403Z,22.50
2019-03-22T09:31:22.237Z,23.38
2019-03-22T09:33:54.179Z,23.35
2019-03-22T09:36:24.892Z,22.17
2019-03-22T09:38:55.736Z,21.52
2019-03-22T09:41:26.519Z,22.77
2019-03-22T09:43:59.946Z,22.77
2019-03-22T09:46:29.870Z,22.52
2019-03-22T09:49:00.721Z,21.68
2019-03-22T09:51:32.583Z,21.50
2019-03-22T09:54:03.456Z,21.33
2019-03-22T09:56:46.301Z,21.12
2019-03-22T09:59:06.856Z,21.33
2019-03-22T10:01:37.646Z,21.60
2019-03-22T10:04:08.458Z,20.82
2019-03-22T10:06:39.708Z,20.25
2019-03-22T10:09:10.599Z,20.35
2019-03-22T10:11:41.499Z,20.15
2019-03-22T10:14:12.316Z,20.57
2019-03-22T10:16:43.185Z,19.52
2019-03-22T10:19:14.022Z,19.92
2019-03-22T10:21:44.887Z,19.57
2019-03-22T10:24:15.786Z,19.17
2019-03-22T10:26:46.887Z,19.15
2019-03-22T10:29:17.682Z,19.48
2019-03-22T10:31:48.849Z,19.80
2019-03-22T10:34:19.716Z,19.27
2019-03-22T10:36:50.559Z,18.85
2019-03-22T10:39:22.946Z,18.30
2019-03-22T10:41:53.854Z,17.82
2019-03-22T10:44:24.638Z,18.67
2019-03-22T10:46:55.455Z,18.70
2019-03-22T10:49:26.658Z,18.05
2019-03-22T10:51:58.267Z,17.73
2019-03-22T10:54:31.891Z,17.52
2019-03-22T10:57:02.841Z,17.17
2019-03-22T10:59:33.645Z,17.23
2019-03-22T11:02:07.567Z,17.80
2019-03-22T11:04:37.437Z,17.52
2019-03-22T11:07:08.186Z,17.48
2019-03-22T11:09:39.023Z,17.42
2019-03-22T11:12:12.447Z,17.55
2019-03-22T11:14:42.367Z,16.00
2019-03-22T11:17:13.166Z,16.02
2019-03-22T11:19:44.008Z,15.60
2019-03-22T11:22:14.802Z,15.45
2019-03-22T11:24:45.577Z,16.32
2019-03-22T11:27:16.299Z,16.45
2019-03-22T11:29:48.073Z,15.83
2019-03-22T11:32:18.960Z,15.25
2019-03-22T11:34:49.728Z,15.78
2019-03-22T11:37:20.491Z,14.75
2019-03-22T11:39:51.331Z,14.98
2019-03-22T11:42:23.615Z,14.65
2019-03-22T11:44:54.408Z,14.53
2019-03-22T11:47:25.182Z,14.87
2019-03-22T11:49:56.467Z,14.50
2019-03-22T11:52:27.295Z,15.05
2019-03-22T11:54:58.192Z,14.85
2019-03-22T11:57:30.404Z,14.43
2019-03-22T12:00:01.614Z,14.25
2019-03-22T12:02:32.490Z,13.30
2019-03-22T12:05:03.350Z,14.45
2019-03-22T12:07:37.100Z,13.95
2019-03-22T12:10:08.208Z,13.80
2019-03-22T12:12:39.041Z,13.55
2019-03-22T12:15:10.104Z,13.68
2019-03-22T12:17:40.968Z,13.15
2019-03-22T12:20:11.997Z,13.38
2019-03-22T12:22:42.986Z,13.22
2019-03-22T12:25:14.058Z,13.05
2019-03-22T12:27:45.300Z,12.88
2019-03-22T12:30:16.647Z,12.55
2019-03-22T12:32:48.990Z,13.53
2019-03-22T12:35:19.900Z,12.88
2019-03-22T12:37:50.717Z,12.47
2019-03-22T12:40:21.846Z,12.73
2019-03-22T12:42:52.692Z,12.07
2019-03-22T12:45:24.941Z,12.18
2019-03-22T12:47:55.707Z,12.00
2019-03-22T12:50:26.534Z,12.90
2019-03-22T12:52:57.424Z,12.45
2019-03-22T12:55:28.208Z,12.43
2019-03-22T12:57:59.650Z,12.25
2019-03-22T13:00:30.398Z,12.23
2019-03-22T13:03:01.234Z,12.07
2019-03-22T13:05:32.036Z,12.47
2019-03-22T13:08:02.987Z,11.43
2019-03-22T13:10:34.075Z,11.48
2019-03-22T13:13:05.019Z,11.55
2019-03-22T13:15:36.845Z,10.90
2019-03-22T13:18:07.830Z,10.95
2019-03-22T13:20:38.693Z,11.80
2019-03-22T13:23:09.551Z,11.45
2019-03-22T13:25:40.383Z,11.18
2019-03-22T13:28:11.152Z,11.70
2019-03-22T13:30:41.991Z,11.20
2019-03-22T13:33:12.807Z,10.70
2019-03-22T13:35:43.684Z,11.28
2019-03-22T13:38:14.414Z,10.58
2019-03-22T13:40:45.212Z,11.10
2019-03-22T13:43:15.968Z,10.28
2019-03-22T13:45:47.357Z,10.63
2019-03-22T13:48:18.116Z,10.10
2019-03-22T13:50:49.120Z,10.68
2019-03-22T13:53:19.928Z,10.05
2019-03-22T13:55:50.720Z,10.85
2019-03-22T13:58:22.233Z,9.75
2019-03-22T14:00:53.103Z,10.80
2019-03-22T14:03:25.711Z,10.68
2019-03-22T14:05:56.660Z,10.45
2019-03-22T14:08:28.580Z,10.18
2019-03-22T14:10:59.478Z,11.10
2019-03-22T14:13:30.436Z,10.32
2019-03-22T14:16:01.298Z,9.93
2019-03-22T14:18:32.604Z,9.78
2019-03-22T14:21:03.457Z,10.28
2019-03-22T14:23:34.214Z,10.00
2019-03-22T14:26:05.012Z,9.10
2019-03-22T14:28:35.713Z,10.08
2019-03-22T14:31:09.451Z,9.35
2019-03-22T14:33:40.182Z,9.48
2019-03-22T14:36:11.082Z,9.33
2019-03-22T14:38:44.185Z,9.63
2019-03-22T14:41:14.564Z,8.73
2019-03-22T14:43:48.083Z,8.18
2019-03-22T14:46:18.902Z,6.72
2019-03-22T14:48:49.728Z,7.90
2019-03-22T14:51:20.563Z,10.72
2019-03-22T14:53:51.457Z,11.33
2019-03-22T14:56:22.281Z,10.80
2019-03-22T14:58:54.095Z,10.82
2019-03-22T15:01:24.859Z,9.48
2019-03-22T15:03:55.647Z,9.28
2019-03-22T15:06:26.483Z,8.93
2019-03-22T15:08:57.347Z,9.48
2019-03-22T15:11:28.110Z,8.88
2019-03-22T15:14:04.426Z,8.93
2019-03-22T15:17:09.350Z,9.35
2019-03-22T15:20:08.067Z,9.65
2019-03-22T15:22:51.221Z,9.33
2019-03-22T15:25:39.797Z,8.45
2019-03-22T15:28:28.054Z,8.53
2019-03-22T15:31:26.847Z,8.60
2019-03-22T15:34:25.657Z,8.98
2019-03-22T15:37:21.558Z,8.70
2019-03-22T15:40:00.649Z,8.70
2019-03-22T15:42:34.373Z,9.00
2019-03-22T15:45:07.423Z,16.23
2019-03-22T15:47:39.771Z,14.78
2019-03-22T15:50:12.947Z,12.90
2019-03-22T15:52:44.053Z,13.00
2019-03-22T15:55:14.840Z,13.03
2019-03-22T15:57:45.695Z,13.58
2019-03-22T16:00:18.027Z,13.53
2019-03-22T16:02:48.970Z,12.45
2019-03-22T16:05:19.822Z,12.73
2019-03-22T16:07:50.669Z,12.68
2019-03-22T16:10:21.548Z,13.00
2019-03-22T16:12:52.407Z,12.93
2019-03-22T16:15:24.548Z,12.30
2019-03-22T16:17:57.061Z,12.85
2019-03-22T16:20:27.930Z,12.50
2019-03-22T16:22:59.063Z,12.37
2019-03-22T16:25:29.883Z,12.43
2019-03-22T16:28:00.963Z,12.58
2019-03-22T16:30:36.716Z,11.50
2019-03-22T16:33:10.058Z,12.35
2019-03-22T16:35:40.908Z,11.83
2019-03-22T16:38:12.051Z,12.18
2019-03-22T16:40:45.659Z,12.30
2019-03-22T16:43:16.548Z,11.50
2019-03-22T16:45:48.554Z,12.00
2019-03-22T16:48:19.341Z,11.65
2019-03-22T16:50:50.127Z,12.78
2019-03-22T16:53:22.498Z,12.05
2019-03-22T16:55:53.315Z,11.80
2019-03-22T16:58:24.131Z,11.12
2019-03-22T17:00:54.906Z,11.03
2019-03-22T17:03:25.693Z,11.12
2019-03-22T17:05:56.523Z,11.88
2019-03-22T17:08:27.268Z,11.95
2019-03-22T17:10:58.084Z,12.10
2019-03-22T17:13:28.866Z,11.70
2019-03-22T17:16:02.050Z,10.60
2019-03-22T17:18:33.959Z,10.63
2019-03-22T17:21:04.713Z,11.60
2019-03-22T17:23:35.578Z,10.85
2019-03-22T17:26:06.411Z,11.53
2019-03-22T17:28:37.172Z,11.38
2019-03-22T17:31:08.002Z,11.40
2019-03-22T17:33:39.290Z,11.03
2019-03-22T17:36:10.127Z,10.93
2019-03-22T17:38:40.933Z,11.20
2019-03-22T17:41:11.723Z,10.78
2019-03-22T17:43:42.489Z,10.60
2019-03-22T17:46:13.348Z,11.75
2019-03-22T17:48:44.077Z,11.08
2019-03-22T17:51:15.816Z,10.28
2019-03-22T17:53:46.699Z,11.00
2019-03-22T17:56:17.574Z,10.50
2019-03-22T17:58:48.480Z,11.22
2019-03-22T18:01:19.480Z,10.80
2019-03-22T18:03:51.404Z,10.15
2019-03-22T18:06:24.025Z,10.85
2019-03-22T18:08:54.779Z,10.58
2019-03-22T18:11:25.561Z,10.80
2019-03-22T18:13:56.345Z,10.58
2019-03-22T18:16:27.139Z,10.65
2019-03-22T18:18:57.966Z,10.48
2019-03-22T18:21:28.776Z,10.75
2019-03-22T18:23:59.607Z,10.03
2019-03-22T18:26:30.463Z,10.72
2019-03-22T18:29:01.385Z,9.65
2019-03-22T18:31:33.336Z,10.82
2019-03-22T18:34:04.180Z,10.18
2019-03-22T18:36:35.052Z,10.15
2019-03-22T18:39:08.537Z,9.98
2019-03-22T18:41:39.395Z,10.45
2019-03-22T18:44:10.247Z,10.60
2019-03-22T18:46:41.006Z,10.45
2019-03-22T18:49:11.835Z,9.75
2019-03-22T18:51:42.876Z,10.05
2019-03-22T18:54:14.778Z,9.98
2019-03-22T18:56:45.592Z,10.15
2019-03-22T18:59:20.949Z,9.50
2019-03-22T19:01:51.710Z,9.85
2019-03-22T19:04:22.619Z,9.63
2019-03-22T19:06:53.409Z,12.47
2019-03-22T19:09:24.406Z,13.65
2019-03-22T19:11:55.549Z,13.68
2019-03-22T19:14:26.393Z,13.30
2019-03-22T19:16:57.541Z,13.32
2019-03-22T19:19:28.812Z,13.75
2019-03-22T19:21:59.615Z,14.00
2019-03-22T19:24:30.516Z,15.00
2019-03-22T19:27:01.334Z,14.40
2019-03-22T19:29:32.105Z,14.05
2019-03-22T19:32:13.240Z,14.95
2019-03-22T19:34:36.527Z,15.03
2019-03-22T19:37:07.386Z,15.45
2019-03-22T19:39:39.961Z,18.57
2019-03-22T19:42:10.734Z,28.83
2019-03-22T19:44:41.705Z,26.68
2019-03-22T19:47:12.451Z,29.75
2019-03-22T19:49:43.251Z,31.70
2019-03-22T19:52:14.112Z,29.00
2019-03-22T19:54:44.948Z,29.92
2019-03-22T19:57:15.778Z,33.90
2019-03-22T19:59:48.110Z,32.55
2019-03-22T20:02:18.971Z,41.55
2019-03-22T20:04:49.779Z,49.03
2019-03-22T20:07:26.765Z,49.63
2019-03-22T20:09:53.526Z,54.18
2019-03-22T20:12:24.370Z,52.90
2019-03-22T20:14:58.200Z,55.88
2019-03-22T20:17:29.889Z,60.78
2019-03-22T20:20:03.103Z,60.75
2019-03-22T20:22:39.154Z,61.10
2019-03-22T20:25:10.370Z,58.23
2019-03-22T20:27:41.314Z,58.33
2019-03-22T20:30:15.784Z,56.45
2019-03-22T20:32:47.781Z,58.52
2019-03-22T20:35:18.653Z,57.48
2019-03-22T20:37:49.547Z,58.98
2019-03-22T20:40:20.458Z,60.12
2019-03-22T20:42:51.335Z,58.60
2019-03-22T20:45:24.468Z,64.75
2019-03-22T20:47:54.956Z,61.70
2019-03-22T20:50:35.350Z,61.20
2019-03-22T20:53:00.617Z,61.50
2019-03-22T20:55:33.145Z,62.00
2019-03-22T20:58:04.622Z,78.57
2019-03-22T21:00:39.521Z,84.05
2019-03-22T21:03:10.759Z,98.30
2019-03-22T21:05:47.021Z,99.50
2019-03-22T21:08:18.217Z,96.87
2019-03-22T21:10:50.159Z,94.28
2019-03-22T21:13:21.052Z,92.78
2019-03-22T21:15:51.870Z,88.45
2019-03-22T21:18:23.375Z,89.67
2019-03-22T21:20:54.759Z,88.45
2019-03-22T21:23:35.958Z,83.50
2019-03-22T21:26:02.776Z,83.90
2019-03-22T21:28:34.619Z,79.90
2019-03-22T21:31:05.466Z,83.50
2019-03-22T21:33:36.986Z,79.07
2019-03-22T21:36:07.913Z,77.92
2019-03-22T21:38:39.077Z,77.97
2019-03-22T21:41:09.888Z,82.40
2019-03-22T21:43:40.731Z,92.00
2019-03-22T21:46:14.596Z,91.28
2019-03-22T21:48:48.303Z,93.95
2019-03-22T21:51:19.378Z,98.10
2019-03-22T21:53:50.224Z,98.27
2019-03-22T21:56:21.153Z,98.95
2019-03-22T21:58:52.022Z,97.60
2019-03-22T22:01:22.797Z,98.00
2019-03-22T22:03:53.617Z,96.95
2019-03-22T22:06:24.439Z,97.25
2019-03-22T22:08:55.212Z,93.07
2019-03-22T22:11:26.148Z,88.92
2019-03-22T22:13:56.966Z,91.17
2019-03-22T22:16:28.589Z,89.70
2019-03-22T22:18:59.364Z,89.95
2019-03-22T22:21:30.200Z,89.30
2019-03-22T22:24:01.043Z,86.85
2019-03-22T22:26:31.954Z,86.72
2019-03-22T22:29:02.831Z,86.95
2019-03-22T22:31:33.825Z,86.02
2019-03-22T22:34:05.075Z,84.00
2019-03-22T22:36:39.257Z,82.20
2019-03-22T22:39:11.106Z,82.00
2019-03-22T22:41:42.076Z,80.72
2019-03-22T22:44:12.833Z,82.35
2019-03-22T22:46:43.670Z,82.25
2019-03-22T22:49:14.477Z,81.50
2019-03-22T22:51:45.307Z,79.07
2019-03-22T22:54:16.199Z,79.15
2019-03-22T22:56:46.974Z,79.65
2019-03-22T22:59:17.873Z,76.17
2019-03-22T23:01:48.756Z,75.62
2019-03-22T23:04:19.604Z,75.90
2019-03-22T23:06:50.472Z,73.47
2019-03-22T23:09:21.282Z,74.55
2019-03-22T23:11:52.171Z,72.50
2019-03-22T23:14:24.555Z,75.85
2019-03-22T23:16:55.395Z,72.60
2019-03-22T23:19:26.205Z,73.02
2019-03-22T23:21:57.145Z,71.00
2019-03-22T23:24:30.674Z,70.12
2019-03-22T23:27:02.626Z,66.42
2019-03-22T23:29:33.465Z,69.50
2019-03-22T23:32:04.302Z,67.03
2019-03-22T23:34:35.138Z,67.82
2019-03-22T23:37:07.158Z,65.45
2019-03-22T23:39:38.265Z,65.42
2019-03-22T23:42:09.188Z,65.25
2019-03-22T23:44:40.046Z,63.83
2019-03-22T23:47:10.885Z,62.35
2019-03-22T23:49:41.686Z,63.45
2019-03-22T23:52:12.469Z,62.35
2019-03-22T23:54:46.081Z,60.80
2019-03-22T23:57:16.944Z,61.18
2019-03-22T23:59:47.715Z,61.65
